Time;durP1;ratioP1;P1;durP2;ratioP2;P2;SDS_P1;SDS_P2;PMS_P1;PMS_P2;Temp;Humidity;BMP_temperature;BMP_pressure;BME280_temperature;BME280_humidity;BME280_pressure;Samples;Min_cycle;Max_cycle;Signal;HPM_P1;HPM_P2
2021/03/06 00:00:34;;;;;;;10.85;3.95;;;;;;;-1.84;62.26;100467.44;1779555;80;21621;-70
2021/03/06 00:03:03;;;;;;;6.90;3.15;;;;;;;-1.91;62.13;100468.63;1783513;80;21111;-71
2021/03/06 00:05:31;;;;;;;6.17;2.75;;;;;;;-1.96;65.12;100471.95;1783348;80;22144;-72
2021/03/06 00:07:58;;;;;;;7.72;3.05;;;;;;;-1.99;61.86;100468.89;1783534;80;21209;-71
2021/03/06 00:10:27;;;;;;;7.78;2.95;;;;;;;-2.02;62.64;100474.00;1783349;79;21667;-68
2021/03/06 00:12:55;;;;;;;7.55;2.80;;;;;;;-2.05;62.29;100473.06;1783508;80;21162;-70
2021/03/06 00:15:26;;;;;;;9.73;3.17;;;;;;;-2.08;61.41;100473.88;1783425;80;21142;-72
2021/03/06 00:17:54;;;;;;;10.82;3.40;;;;;;;-2.11;60.92;100480.28;1783535;80;21334;-72
2021/03/06 00:20:24;;;;;;;6.55;2.70;;;;;;;-2.17;60.17;100480.14;1783365;80;21202;-73
2021/03/06 00:22:53;;;;;;;5.17;2.67;;;;;;;-2.19;60.69;100476.66;1783604;80;21214;-72
2021/03/06 00:25:21;;;;;;;11.12;3.30;;;;;;;-2.24;62.52;100484.73;1783915;80;21202;-72
2021/03/06 00:27:49;;;;;;;9.55;3.25;;;;;;;-2.29;59.90;100481.19;1784345;79;21213;-72
2021/03/06 00:30:18;;;;;;;8.80;3.30;;;;;;;-2.35;61.74;100475.08;1784270;80;22118;-73
2021/03/06 00:32:46;;;;;;;9.80;2.87;;;;;;;-2.36;61.41;100474.61;1784117;80;21570;-73
2021/03/06 00:35:15;;;;;;;11.63;3.95;;;;;;;-2.38;60.51;100478.86;1783481;80;21158;-72
2021/03/06 00:37:43;;;;;;;8.75;3.92;;;;;;;-2.43;63.57;100471.45;1783272;79;21678;-71
2021/03/06 00:40:14;;;;;;;10.72;4.15;;;;;;;-2.46;61.72;100476.55;1783814;80;21151;-71
2021/03/06 00:42:41;;;;;;;10.32;3.45;;;;;;;-2.49;62.45;100480.34;1783505;80;21582;-72
2021/03/06 00:45:10;;;;;;;17.90;3.95;;;;;;;-2.53;62.40;100487.58;1783485;79;21178;-71
2021/03/06 00:47:40;;;;;;;10.80;4.20;;;;;;;-2.59;61.34;100483.14;1778506;78;21159;-70
2021/03/06 00:50:29;;;;;;;8.90;3.10;;;;;;;-2.62;64.87;100484.80;1760562;79;21175;-70
2021/03/06 00:52:59;;;;;;;6.83;3.20;;;;;;;-2.68;62.65;100480.79;1738117;81;21167;-71
2021/03/06 00:55:27;;;;;;;12.93;3.57;;;;;;;-2.71;62.55;100483.28;1759726;81;21207;-72
2021/03/06 00:57:55;;;;;;;9.33;3.10;;;;;;;-2.78;61.48;100478.43;1759807;81;21665;-70
2021/03/06 01:00:24;;;;;;;9.93;3.05;;;;;;;-2.84;60.59;100475.28;1737690;81;21575;-69
2021/03/06 01:02:54;;;;;;;6.25;2.80;;;;;;;-2.89;60.15;100474.31;1758923;81;21144;-71
2021/03/06 01:05:22;;;;;;;5.35;2.50;;;;;;;-2.93;61.18;100490.95;1758863;81;21124;-73
2021/03/06 01:07:50;;;;;;;6.15;3.15;;;;;;;-3.00;60.01;100484.78;1758659;80;22334;-71
2021/03/06 01:10:21;;;;;;;7.53;3.00;;;;;;;-3.05;61.29;100478.66;1758634;81;21681;-71
2021/03/06 01:12:49;;;;;;;8.40;3.35;;;;;;;-3.10;61.24;100478.55;1758801;80;21231;-71
2021/03/06 01:15:17;;;;;;;7.70;2.83;;;;;;;-3.11;60.62;100482.37;1758732;81;21685;-71
2021/03/06 01:17:45;;;;;;;5.00;2.83;;;;;;;-3.14;61.99;100488.74;1758693;81;21195;-72
2021/03/06 01:20:15;;;;;;;5.92;2.62;;;;;;;-3.18;60.72;100486.07;1758767;80;21344;-71
2021/03/06 01:22:42;;;;;;;4.93;2.60;;;;;;;-3.21;61.19;100483.44;1744709;80;21119;-70
2021/03/06 01:25:13;;;;;;;11.03;3.00;;;;;;;-3.23;62.40;100482.52;1712937;82;21226;-71
2021/03/06 01:27:41;;;;;;;5.10;2.43;;;;;;;-3.22;61.66;100483.00;1705683;83;21187;-71
2021/03/06 01:30:11;;;;;;;8.07;2.77;;;;;;;-3.24;61.93;100486.37;1713044;82;21206;-72
2021/03/06 01:32:40;;;;;;;6.67;3.17;;;;;;;-3.27;61.60;100488.42;1705739;83;22705;-72
2021/03/06 01:35:12;;;;;;;6.80;2.83;;;;;;;-3.29;60.38;100484.97;1713012;83;21178;-72
2021/03/06 01:37:41;;;;;;;8.60;2.87;;;;;;;-3.32;61.91;100484.87;1706442;83;21198;-72
2021/03/06 01:40:14;;;;;;;6.37;2.77;;;;;;;-3.35;60.71;100492.53;1712585;83;21202;-71
2021/03/06 01:42:42;;;;;;;6.93;2.90;;;;;;;-3.38;60.72;100493.75;1705315;83;21575;-71
2021/03/06 01:45:14;;;;;;;6.30;2.87;;;;;;;-3.40;63.02;100499.28;1713221;83;21395;-70
2021/03/06 01:47:42;;;;;;;7.17;2.50;;;;;;;-3.40;60.63;100499.28;1705263;82;21135;-70
2021/03/06 01:50:14;;;;;;;9.10;3.00;;;;;;;-3.42;61.75;100495.79;1717568;82;21185;-70
2021/03/06 01:52:42;;;;;;;6.73;3.30;;;;;;;-3.44;61.91;100507.75;1718209;83;21648;-70
2021/03/06 01:55:14;;;;;;;8.57;2.97;;;;;;;-3.45;61.08;100508.56;1672877;84;21167;-71
2021/03/06 01:57:41;;;;;;;6.03;2.20;;;;;;;-3.46;63.80;100506.84;1667276;86;21398;-72
2021/03/06 02:00:13;;;;;;;4.67;2.00;;;;;;;-3.49;61.37;100511.92;1666683;84;21166;-72
2021/03/06 02:02:42;;;;;;;4.65;2.27;;;;;;;-3.50;61.66;100515.31;1668156;86;21201;-73
2021/03/06 02:05:13;;;;;;;4.62;2.33;;;;;;;-3.53;63.12;100519.10;1668724;86;21178;-71
2021/03/06 02:07:41;;;;;;;7.30;2.95;;;;;;;-3.54;60.61;100523.77;1669620;84;21170;-73
2021/03/06 02:10:12;;;;;;;5.20;2.33;;;;;;;-3.60;62.75;100520.22;1677734;84;21376;-71
2021/03/06 02:13:00;;;;;;;5.40;2.95;;;;;;;-3.63;61.36;100530.44;1667975;84;21240;-72
2021/03/06 02:16:07;;;;;;;4.15;2.20;;;;;;;-3.69;60.38;100525.12;1668067;84;21201;-73
2021/03/06 02:19:02;;;;;;;5.33;2.30;;;;;;;-3.69;62.32;100536.70;1668541;84;21161;-73
2021/03/06 02:22:07;;;;;;;4.37;2.07;;;;;;;-3.73;62.88;100535.29;1677717;83;21191;-72
2021/03/06 02:25:04;;;;;;;5.13;1.93;;;;;;;-3.77;60.51;100547.61;1640873;86;21248;-72
2021/03/06 02:27:57;;;;;;;7.90;3.07;;;;;;;-3.84;59.91;100550.45;1703931;83;21746;-72
2021/03/06 02:30:26;;;;;;;5.57;2.30;;;;;;;-3.87;63.33;100552.92;1703899;84;21675;-72
2021/03/06 02:32:54;;;;;;;3.57;1.93;;;;;;;-3.93;61.16;100555.34;1696759;83;21100;-72
2021/03/06 02:35:24;;;;;;;3.97;2.20;;;;;;;-4.00;60.48;100556.87;1703814;84;21192;-71
2021/03/06 02:38:04;;;;;;;5.85;2.40;;;;;;;-4.06;61.69;100562.69;1703712;84;21341;-73
2021/03/06 02:40:32;;;;;;;4.03;1.97;;;;;;;-4.12;60.60;100562.50;1703747;84;21672;-72
2021/03/06 02:42:59;;;;;;;4.63;2.40;;;;;;;-4.17;61.19;100570.50;1685467;84;21198;-73
2021/03/06 02:45:27;;;;;;;9.40;2.37;;;;;;;-4.23;62.46;100568.64;1766193;80;21646;-71
2021/03/06 02:47:57;;;;;;;3.87;2.20;;;;;;;-4.29;60.61;100574.02;1762163;80;21199;-72
2021/03/06 02:50:25;;;;;;;4.93;2.00;;;;;;;-4.34;61.20;100584.16;1762153;81;21701;-72
2021/03/06 02:52:54;;;;;;;3.97;2.17;;;;;;;-4.38;61.99;100580.16;1768118;80;21209;-72
2021/03/06 02:55:24;;;;;;;3.98;2.22;;;;;;;-4.41;61.25;100585.22;1771090;80;24220;-73
2021/03/06 02:58:24;;;;;;;4.23;2.30;;;;;;;-4.44;61.75;100592.01;1774205;80;21123;-72
2021/03/06 03:01:21;;;;;;;2.97;1.80;;;;;;;-4.50;60.75;100590.52;1774326;80;21152;-71
2021/03/06 03:04:03;;;;;;;4.87;2.13;;;;;;;-4.52;60.90;100597.31;1765132;80;21380;-71
2021/03/06 03:06:37;;;;;;;5.47;2.40;;;;;;;-4.55;62.22;100597.64;1763745;81;21515;-71
2021/03/06 03:09:28;;;;;;;3.90;2.40;;;;;;;-4.59;62.10;100605.66;1764166;80;21167;-72
2021/03/06 03:12:18;;;;;;;4.33;2.10;;;;;;;-4.63;60.31;100614.09;1763873;81;21222;-70
2021/03/06 03:15:04;;;;;;;4.77;2.10;;;;;;;-4.68;60.77;100615.22;1764873;81;21162;-72
2021/03/06 03:17:38;;;;;;;4.03;2.17;;;;;;;-4.71;61.05;100612.98;1734153;82;21179;-69
2021/03/06 03:20:41;;;;;;;12.67;2.53;;;;;;;-4.74;58.56;100615.44;1733758;81;21227;-69
2021/03/06 03:23:16;;;;;;;13.43;3.53;;;;;;;-4.73;59.45;100619.77;1733585;81;21232;-70
2021/03/06 03:28:47;;;;;;;3.73;1.83;;;;;;;-4.74;59.96;100615.44;1813715;79;22655;-70
2021/03/06 03:31:16;;;;;;;4.70;2.10;;;;;;;-4.81;59.08;100613.49;1786976;80;21158;-72
2021/03/06 03:33:44;;;;;;;4.93;2.30;;;;;;;-4.83;59.76;100618.98;1732394;80;21213;-71
2021/03/06 03:36:12;;;;;;;5.03;2.20;;;;;;;-4.83;58.64;100624.13;1755481;80;21187;-70
2021/03/06 03:38:40;;;;;;;3.27;2.20;;;;;;;-4.85;62.05;100617.67;1718959;83;21199;-72
2021/03/06 03:41:09;;;;;;;4.60;1.80;;;;;;;-4.86;62.00;100626.19;1690326;83;21563;-71
2021/03/06 03:43:38;;;;;;;4.07;2.10;;;;;;;-4.88;60.24;100621.02;1718859;83;21195;-71
2021/03/06 03:46:08;;;;;;;7.17;1.95;;;;;;;-4.91;60.23;100628.60;1722411;83;21378;-72
2021/03/06 03:48:38;;;;;;;5.10;2.27;;;;;;;-4.95;61.30;100626.75;1718748;83;21242;-72
2021/03/06 03:51:06;;;;;;;2.87;1.90;;;;;;;-4.95;62.06;100629.31;1722415;83;21310;-72
2021/03/06 03:53:34;;;;;;;4.33;2.23;;;;;;;-4.98;61.18;100631.79;1718871;83;21178;-71
2021/03/06 03:56:06;;;;;;;2.70;2.03;;;;;;;-4.99;59.62;100637.77;1694333;83;21144;-71
2021/03/06 03:58:34;;;;;;;7.45;1.90;;;;;;;-5.03;60.23;100633.34;1691321;83;21465;-71
2021/03/06 04:01:03;;;;;;;3.03;2.07;;;;;;;-5.03;61.60;100640.17;1722330;83;21203;-73
2021/03/06 04:03:31;;;;;;;4.87;2.20;;;;;;;-5.04;61.53;100643.55;1718894;83;21187;-71
2021/03/06 04:05:59;;;;;;;4.30;2.00;;;;;;;-5.06;61.90;100641.81;1722331;83;21662;-72
2021/03/06 04:08:27;;;;;;;3.77;2.40;;;;;;;-5.08;60.44;100647.73;1718707;83;21171;-71
2021/03/06 04:10:55;;;;;;;5.23;2.27;;;;;;;-5.10;60.40;100639.95;1722105;83;21386;-71
2021/03/06 04:13:23;;;;;;;2.80;1.70;;;;;;;-5.13;61.23;100641.15;1718778;83;21188;-72
2021/03/06 04:15:53;;;;;;;5.77;2.00;;;;;;;-5.13;60.40;100644.09;1722175;83;21736;-71
2021/03/06 04:18:21;;;;;;;4.70;2.07;;;;;;;-5.13;62.68;100644.09;1719123;83;21191;-71
2021/03/06 04:20:48;;;;;;;4.87;2.20;;;;;;;-5.15;61.86;100648.34;1713093;83;21188;-70
2021/03/06 04:23:17;;;;;;;20.13;3.50;;;;;;;-5.16;61.53;100638.88;1693094;84;21282;-71
2021/03/06 04:25:45;;;;;;;12.00;4.13;;;;;;;-5.20;62.68;100644.33;1693381;84;21200;-71
2021/03/06 04:28:12;;;;;;;6.40;2.83;;;;;;;-5.22;60.87;100643.78;1686815;84;21144;-74
2021/03/06 04:30:40;;;;;;;6.47;2.53;;;;;;;-5.23;62.68;100647.19;1685636;85;21239;-73
2021/03/06 04:33:10;;;;;;;5.53;2.30;;;;;;;-5.24;63.16;100646.73;1696331;84;21209;-71
2021/03/06 04:35:38;;;;;;;6.60;2.90;;;;;;;-5.25;62.15;100647.54;1679637;85;21390;-73
2021/03/06 04:38:08;;;;;;;3.00;2.03;;;;;;;-5.25;64.61;100652.67;1679818;85;21240;-70
2021/03/06 04:40:36;;;;;;;5.73;2.70;;;;;;;-5.27;62.56;100649.66;1679643;85;21482;-73
2021/03/06 04:43:04;;;;;;;3.13;2.23;;;;;;;-5.27;61.82;100656.08;1684360;84;21207;-72
2021/03/06 04:45:32;;;;;;;3.90;1.80;;;;;;;-5.29;62.48;100657.71;1685150;85;21717;-72
2021/03/06 04:48:00;;;;;;;4.83;2.10;;;;;;;-5.29;61.44;100653.86;1697948;84;21386;-72
2021/03/06 04:50:28;;;;;;;3.80;1.80;;;;;;;-5.29;63.00;100655.14;1713679;83;21669;-68
2021/03/06 04:52:56;;;;;;;6.27;2.40;;;;;;;-5.28;62.46;100663.30;1713642;83;21978;-70
2021/03/06 04:55:23;;;;;;;5.67;2.03;;;;;;;-5.27;62.25;100667.63;1713663;83;21188;-70
2021/03/06 04:57:51;;;;;;;4.60;2.37;;;;;;;-5.25;63.21;100666.80;1713766;83;21639;-71
2021/03/06 05:00:21;;;;;;;5.43;3.00;;;;;;;-5.24;62.11;100667.28;1713708;83;21644;-71
2021/03/06 05:02:50;;;;;;;6.73;2.60;;;;;;;-5.24;62.08;100664.30;1713575;83;21191;-69
2021/03/06 05:05:18;;;;;;;4.93;2.50;;;;;;;-5.21;62.13;100666.09;1698339;83;21187;-70
2021/03/06 05:07:46;;;;;;;6.23;2.70;;;;;;;-5.19;61.49;100664.45;1739120;82;21663;-70
2021/03/06 05:10:13;;;;;;;4.43;2.43;;;;;;;-5.15;64.20;100665.03;1744401;81;21148;-71
2021/03/06 05:12:41;;;;;;;6.13;2.40;;;;;;;-4.95;62.24;100670.42;1746640;82;21807;-70
2021/03/06 05:15:09;;;;;;;5.70;2.13;;;;;;;-4.26;61.92;100679.53;1746545;82;21171;-70
2021/03/06 05:17:37;;;;;;;6.03;1.97;;;;;;;-3.38;64.79;100672.74;1746633;82;21623;-70
2021/03/06 05:20:09;;;;;;;4.63;2.00;;;;;;;-2.48;58.09;100679.40;1746031;82;21669;-70
2021/03/06 05:22:38;;;;;;;3.83;2.10;;;;;;;-2.04;56.94;100682.58;1716601;83;21208;-72
2021/03/06 05:25:09;;;;;;;3.40;2.15;;;;;;;-2.02;57.11;100680.48;1716805;83;22198;-70
2021/03/06 05:27:43;;;;;;;11.28;2.20;;;;;;;-2.16;54.83;100693.50;1722120;81;21159;-71
2021/03/06 05:30:13;;;;;;;4.83;1.75;;;;;;;-2.30;56.65;100702.20;1740881;81;21722;-70
2021/03/06 05:32:41;;;;;;;4.20;2.02;;;;;;;-2.33;56.72;100703.39;1741108;81;21643;-71
2021/03/06 05:35:11;;;;;;;4.92;2.20;;;;;;;-1.86;56.06;100696.30;1742702;81;21184;-72
2021/03/06 05:37:41;;;;;;;4.00;2.22;;;;;;;-1.08;57.78;100705.72;1741317;81;21380;-69
2021/03/06 05:40:10;;;;;;;5.67;2.58;;;;;;;-0.22;52.24;100709.39;1731607;82;21180;-70
2021/03/06 05:42:42;;;;;;;4.60;2.20;;;;;;;0.52;50.27;100706.58;1731728;82;21169;-72
2021/03/06 05:45:10;;;;;;;5.12;2.45;;;;;;;1.20;51.55;100705.66;1734348;81;21627;-71
2021/03/06 05:47:39;;;;;;;3.62;2.10;;;;;;;1.96;46.93;100704.59;1737834;81;21176;-71
2021/03/06 05:50:08;;;;;;;5.08;1.80;;;;;;;2.67;46.69;100710.22;1731756;82;21406;-72
2021/03/06 05:52:38;;;;;;;5.67;2.77;;;;;;;3.31;47.62;100713.03;1731436;82;21458;-72
2021/03/06 05:55:08;;;;;;;4.05;2.40;;;;;;;3.96;41.05;100713.07;1715841;81;21188;-72
2021/03/06 05:57:39;;;;;;;7.22;2.00;;;;;;;4.31;40.66;100716.92;1738596;81;21639;-71
2021/03/06 06:00:08;;;;;;;3.87;2.55;;;;;;;4.62;38.78;100718.13;1726370;81;21179;-71
2021/03/06 06:02:39;;;;;;;73.28;4.95;;;;;;;5.00;38.44;100719.73;1741760;81;21426;-73
2021/03/06 06:05:08;;;;;;;11.33;2.27;;;;;;;5.28;36.19;100718.28;1752119;81;21722;-71
2021/03/06 06:07:36;;;;;;;5.42;2.12;;;;;;;5.33;36.24;100717.81;1742974;81;21227;-72
2021/03/06 06:10:07;;;;;;;8.88;2.55;;;;;;;5.46;35.97;100724.70;1738696;81;21197;-72
2021/03/06 06:12:34;;;;;;;12.68;3.00;;;;;;;5.74;35.23;100733.66;1731746;81;21204;-71
2021/03/06 06:15:05;;;;;;;104.58;4.95;;;;;;;5.95;35.44;100734.81;1736539;81;21369;-72
2021/03/06 06:17:34;;;;;;;6.30;2.35;;;;;;;6.33;38.82;100740.15;1732745;81;21700;-70
2021/03/06 06:20:03;;;;;;;14.80;3.30;;;;;;;6.77;34.28;100737.49;1736215;81;21642;-72
2021/03/06 06:22:31;;;;;;;26.00;2.85;;;;;;;7.09;33.47;100736.23;1738946;81;21231;-71
2021/03/06 06:24:59;;;;;;;6.25;2.47;;;;;;;7.39;33.79;100739.33;1730864;82;21650;-71
2021/03/06 06:27:30;;;;;;;22.48;3.22;;;;;;;7.65;32.01;100743.73;1737199;81;21646;-71
2021/03/06 06:29:58;;;;;;;;;;;;;;;7.92;31.32;100748.13;1746429;82;21247;-70
2021/03/06 06:32:43;;;;;;;9.15;2.12;;;;;;;8.32;32.26;100748.75;1752299;80;20274;-71
2021/03/06 06:35:14;;;;;;;3.10;1.82;;;;;;;8.58;29.40;100751.81;1691721;84;21200;-72
2021/03/06 06:38:03;;;;;;;3.57;2.17;;;;;;;8.66;30.03;100746.86;1694791;83;21199;-73
2021/03/06 06:40:34;;;;;;;9.95;1.92;;;;;;;8.88;29.91;100753.42;1709031;83;22254;-72
2021/03/06 06:43:25;;;;;;;3.87;1.90;;;;;;;9.01;27.46;100757.51;1691689;84;21168;-72
2021/03/06 06:45:52;;;;;;;3.95;1.92;;;;;;;8.96;29.46;100751.49;1760226;80;21192;-72
2021/03/06 06:48:21;;;;;;;4.12;1.70;;;;;;;9.03;28.94;100758.34;1754231;80;21643;-71
2021/03/06 06:50:52;;;;;;;4.33;1.67;;;;;;;9.25;28.28;100756.59;1747358;80;21160;-72
2021/03/06 06:53:26;;;;;;;4.35;1.95;;;;;;;9.64;28.33;100756.16;1707583;80;21207;-72
2021/03/06 06:55:54;;;;;;;3.70;1.82;;;;;;;9.75;26.33;100755.87;1752178;80;21616;-73
2021/03/06 06:58:40;;;;;;;2.55;1.70;;;;;;;9.77;26.39;100761.97;1762744;80;21156;-71
2021/03/06 07:01:32;;;;;;;2.85;1.40;;;;;;;9.91;27.39;100760.79;1689758;83;21180;-73
2021/03/06 07:04:05;;;;;;;20.90;2.80;;;;;;;10.22;26.04;100751.69;1749831;80;21330;-72
2021/03/06 07:06:34;;;;;;;4.25;1.80;;;;;;;10.75;25.49;100759.10;1748026;80;21242;-71
2021/03/06 07:09:15;;;;;;;4.10;1.72;;;;;;;10.87;25.14;100757.44;1758293;80;21580;-74
2021/03/06 07:11:43;;;;;;;12.90;2.00;;;;;;;10.89;23.27;100756.94;1743854;80;21180;-73
2021/03/06 07:14:13;;;;;;;5.50;1.90;;;;;;;10.95;23.51;100764.68;1743901;82;21183;-73
2021/03/06 07:17:00;;;;;;;4.40;1.70;;;;;;;10.94;25.14;100764.25;1743372;80;21164;-74
2021/03/06 07:19:32;;;;;;;19.20;2.10;;;;;;;11.05;22.43;100760.86;1749452;80;21429;-73
2021/03/06 07:22:01;;;;;;;5.53;1.70;;;;;;;10.94;22.78;100764.25;1743542;80;21866;-72
2021/03/06 07:24:30;;;;;;;8.98;2.27;;;;;;;11.05;21.99;100759.55;1750570;80;21683;-73
2021/03/06 07:27:00;;;;;;;12.58;2.30;;;;;;;11.05;21.75;100762.18;1758562;80;21159;-72
2021/03/06 07:29:28;;;;;;;4.40;2.30;;;;;;;11.15;21.93;100764.09;1749619;80;21180;-72
2021/03/06 07:31:58;;;;;;;4.45;2.27;;;;;;;11.35;21.95;100764.83;1754249;81;21370;-73
2021/03/06 07:34:28;;;;;;;4.17;2.20;;;;;;;11.55;21.65;100765.55;1747722;81;21228;-73
2021/03/06 07:37:05;;;;;;;6.87;2.00;;;;;;;11.92;21.98;100773.65;1742726;81;21195;-72
2021/03/06 07:39:43;;;;;;;34.03;3.27;;;;;;;12.20;20.08;100768.31;1744670;81;21215;-72
2021/03/06 07:42:27;;;;;;;2.60;1.62;;;;;;;12.48;20.43;100772.66;1751429;81;21190;-74
2021/03/06 07:44:56;;;;;;;4.58;2.20;;;;;;;12.71;19.84;100775.34;1747774;80;21921;-71
2021/03/06 07:47:32;;;;;;;5.40;2.00;;;;;;;12.90;18.95;100780.83;1668469;84;21153;-71
2021/03/06 07:50:08;;;;;;;24.07;13.25;;;;;;;12.82;19.80;100779.41;1696037;84;21176;-72
2021/03/06 07:52:38;;;;;;;7.55;2.75;;;;;;;12.79;19.87;100773.31;1749712;81;21189;-71
2021/03/06 07:55:10;;;;;;;3.47;1.90;;;;;;;12.92;19.96;100778.14;1756410;81;21347;-72
2021/03/06 07:58:05;;;;;;;5.30;2.08;;;;;;;13.11;19.26;100775.23;1694751;84;21391;-75
2021/03/06 08:00:54;;;;;;;4.15;2.35;;;;;;;13.07;18.90;100770.98;1689548;84;21482;-72
2021/03/06 08:03:36;;;;;;;4.37;2.10;;;;;;;13.00;18.80;100774.30;1765839;81;21231;-73
2021/03/06 08:06:17;;;;;;;5.47;2.20;;;;;;;13.12;19.34;100771.66;1700207;84;21706;-71
2021/03/06 08:08:53;;;;;;;6.78;2.10;;;;;;;13.28;19.11;100777.73;1700069;84;21152;-72
2021/03/06 08:11:24;;;;;;;5.15;2.15;;;;;;;13.34;18.21;100774.41;1693920;84;21431;-73
2021/03/06 08:13:57;;;;;;;6.03;2.00;;;;;;;13.63;19.57;100771.08;1765875;81;21599;-73
2021/03/06 08:16:36;;;;;;;30.57;2.40;;;;;;;13.95;19.40;100775.08;1738243;81;21667;-71
2021/03/06 08:19:16;;;;;;;9.63;2.17;;;;;;;14.27;17.24;100771.56;1736044;82;22102;-71
2021/03/06 08:21:49;;;;;;;;;;;;;;;14.22;18.47;100774.41;1739876;82;21149;-72
2021/03/06 08:24:26;;;;;;;4.10;1.52;;;;;;;14.37;18.63;100776.86;1757610;81;22067;-72
2021/03/06 08:27:08;;;;;;;4.87;1.72;;;;;;;14.50;17.90;100781.66;1736141;82;21299;-72
2021/03/06 08:29:42;;;;;;;8.33;1.52;;;;;;;14.22;17.03;100770.91;1739539;82;21187;-73
2021/03/06 08:32:26;;;;;;;2.33;1.20;;;;;;;13.95;19.51;100776.87;1743674;82;21180;-72
2021/03/06 08:34:59;;;;;;;8.75;1.60;;;;;;;13.83;16.65;100765.00;1748355;80;21552;-71
2021/03/06 08:37:28;;;;;;;3.02;1.32;;;;;;;14.04;18.16;100774.70;1743807;82;21218;-72
2021/03/06 08:40:16;;;;;;;2.58;1.30;;;;;;;14.22;17.41;100769.58;1744146;82;21276;-72
2021/03/06 08:42:51;;;;;;;18.45;2.33;;;;;;;14.56;17.76;100766.39;1744413;82;21151;-72
2021/03/06 08:45:27;;;;;;;4.40;1.45;;;;;;;14.99;16.95;100771.56;1744601;82;21192;-75
2021/03/06 08:47:58;;;;;;;4.37;1.90;;;;;;;15.04;16.96;100767.76;1743970;80;21205;-73
2021/03/06 08:50:27;;;;;;;2.95;1.60;;;;;;;15.17;16.56;100772.05;1749197;80;21375;-72
2021/03/06 08:53:07;;;;;;;5.72;2.10;;;;;;;15.05;17.21;100756.70;1743901;82;21203;-71
2021/03/06 08:55:40;;;;;;;4.50;2.15;;;;;;;14.53;16.10;100765.61;1744619;80;21184;-72
2021/03/06 08:58:13;;;;;;;2.27;1.50;;;;;;;14.04;16.62;100756.63;1743954;82;21180;-72
2021/03/06 09:00:43;;;;;;;;;;;;;;;13.91;18.40;100769.97;1762566;80;21180;-72
2021/03/06 09:03:21;;;;;;;6.67;2.25;;;;;;;13.87;16.77;100767.89;1771627;80;21649;-73
2021/03/06 09:05:58;;;;;;;3.15;1.50;;;;;;;14.08;19.59;100763.97;1774654;80;21220;-72
2021/03/06 09:08:27;;;;;;;5.20;1.50;;;;;;;14.38;18.42;100768.00;1679962;84;21706;-72
2021/03/06 09:10:59;;;;;;;3.40;1.55;;;;;;;14.65;16.32;100763.34;1762637;80;21243;-72
2021/03/06 09:13:31;;;;;;;8.25;1.90;;;;;;;14.55;18.37;100766.44;1747913;80;21206;-71
2021/03/06 09:16:05;;;;;;;14.63;2.20;;;;;;;14.06;16.65;100755.64;1689540;84;21522;-72
2021/03/06 09:18:37;;;;;;;5.15;1.55;;;;;;;13.68;17.89;100773.54;1707957;83;21227;-72
2021/03/06 09:21:23;;;;;;;15.90;2.05;;;;;;;13.78;18.75;100761.64;1681113;84;21221;-73
2021/03/06 09:23:53;;;;;;;5.12;1.60;;;;;;;14.12;16.57;100770.40;1708920;83;21228;-73
2021/03/06 09:26:24;;;;;;;4.58;1.60;;;;;;;14.10;16.85;100766.09;1744204;82;21746;-71
2021/03/06 09:28:54;;;;;;;6.05;1.62;;;;;;;13.95;18.79;100769.78;1744433;82;21770;-72
2021/03/06 09:31:28;;;;;;;2.02;0.90;;;;;;;14.13;17.36;100769.97;1697514;83;21215;-73
2021/03/06 09:33:59;;;;;;;11.05;1.40;;;;;;;14.24;17.39;100765.05;1689614;82;21255;-73
2021/03/06 09:36:31;;;;;;;3.55;1.40;;;;;;;14.31;17.37;100773.16;1700322;83;21242;-71
2021/03/06 09:39:00;;;;;;;3.17;1.30;;;;;;;14.15;15.85;100765.44;1712217;83;21215;-71
2021/03/06 09:41:34;;;;;;;2.87;1.25;;;;;;;13.97;17.10;100769.26;1684621;85;21228;-71
2021/03/06 09:44:06;;;;;;;8.30;1.32;;;;;;;13.74;16.73;100761.39;1698653;84;21197;-72
2021/03/06 09:46:37;;;;;;;2.52;1.40;;;;;;;13.64;16.13;100768.81;1699342;83;21247;-70
2021/03/06 09:49:09;;;;;;;6.28;1.47;;;;;;;13.74;16.82;100768.02;1696192;83;21143;-72
2021/03/06 09:51:54;;;;;;;7.65;1.70;;;;;;;13.78;16.71;100754.59;1870654;76;22682;-73
2021/03/06 09:54:25;;;;;;;5.12;1.55;;;;;;;13.85;16.41;100753.89;1848272;77;21141;-72
2021/03/06 09:57:00;;;;;;;10.38;1.50;;;;;;;13.89;16.16;100767.38;1855700;77;21375;-70
2021/03/06 09:59:36;;;;;;;30.15;1.80;;;;;;;13.45;16.75;100764.71;1825073;78;21170;-73
2021/03/06 10:02:08;;;;;;;6.33;1.60;;;;;;;13.15;16.24;100757.45;1833596;76;21134;-73
2021/03/06 10:04:39;;;;;;;5.67;1.65;;;;;;;13.12;16.26;100757.12;1828461;77;21171;-72
2021/03/06 10:07:10;;;;;;;2.92;1.42;;;;;;;13.06;16.25;100766.59;1838169;77;21087;-72
2021/03/06 10:09:41;;;;;;;3.12;1.57;;;;;;;13.06;18.63;100755.16;1838795;77;21353;-72
2021/03/06 10:12:14;;;;;;;2.72;1.50;;;;;;;13.12;17.79;100745.22;1786016;78;21067;-70
2021/03/06 10:14:41;;;;;;;2.42;1.60;;;;;;;13.29;17.19;100750.36;1754283;80;21448;-72
2021/03/06 10:17:09;;;;;;;2.87;1.40;;;;;;;13.46;16.02;100743.97;1782727;79;21115;-72
2021/03/06 10:19:51;;;;;;;5.03;1.50;;;;;;;13.29;15.78;100741.09;1787542;80;21171;-73
2021/03/06 10:22:20;;;;;;;2.00;1.20;;;;;;;12.85;16.18;100749.74;1789032;80;21470;-73
2021/03/06 10:25:03;;;;;;;5.53;1.92;;;;;;;12.67;16.55;100745.13;1788146;80;21531;-76
2021/03/06 10:27:37;;;;;;;4.70;1.65;;;;;;;12.88;17.01;100744.80;1788529;80;21189;-76
2021/03/06 10:30:27;;;;;;;2.85;1.62;;;;;;;13.27;16.06;100732.32;1766799;80;21218;-74
2021/03/06 10:33:03;;;;;;;2.42;1.37;;;;;;;12.91;17.12;100738.95;1764284;80;21174;-74
2021/03/06 10:35:40;;;;;;;5.28;2.15;;;;;;;12.65;16.84;100735.92;1785702;80;21324;-74
2021/03/06 10:38:23;;;;;;;3.30;1.60;;;;;;;12.50;17.33;100733.84;1764143;80;21219;-74
2021/03/06 10:40:56;;;;;;;3.47;1.60;;;;;;;12.71;17.52;100730.42;1752612;80;21148;-73
2021/03/06 10:43:39;;;;;;;6.15;1.90;;;;;;;13.14;16.73;100727.52;1756376;80;21184;-74
2021/03/06 10:46:24;;;;;;;3.30;1.52;;;;;;;13.19;17.03;100724.23;1756759;80;21166;-76
2021/03/06 10:49:02;;;;;;;2.83;1.60;;;;;;;12.56;16.38;100716.00;1765325;80;21664;-76
2021/03/06 10:51:53;;;;;;;6.60;2.30;;;;;;;12.30;16.90;100718.22;1765081;80;21190;-76
2021/03/06 10:54:24;;;;;;;5.20;1.80;;;;;;;12.34;17.57;100710.59;1765600;80;21167;-76
2021/03/06 10:57:05;;;;;;;4.78;1.77;;;;;;;11.86;16.77;100713.95;1754731;81;21209;-76
2021/03/06 10:59:36;;;;;;;2.55;1.50;;;;;;;10.98;17.41;100717.14;1764362;80;21707;-75
2021/03/06 11:02:08;;;;;;;4.25;1.82;;;;;;;9.81;18.54;100720.70;1761843;79;21212;-75
2021/03/06 11:04:38;;;;;;;3.42;1.75;;;;;;;9.34;21.55;100722.23;1754826;80;21208;-77
2021/03/06 11:07:08;;;;;;;2.95;1.60;;;;;;;8.84;20.86;100728.11;1773943;80;21156;-76
2021/03/06 11:09:39;;;;;;;3.58;1.62;;;;;;;8.43;24.77;100727.15;1769640;80;21876;-73
2021/03/06 11:12:25;;;;;;;3.02;1.50;;;;;;;7.90;23.33;100728.92;1750802;81;21767;-75
2021/03/06 11:15:15;;;;;;;4.45;1.80;;;;;;;7.59;22.16;100734.63;1776795;80;21288;-75
2021/03/06 11:17:44;;;;;;;7.58;2.50;;;;;;;7.45;24.61;100728.73;1759996;81;21148;-75
2021/03/06 11:20:15;;;;;;;7.20;2.27;;;;;;;7.38;24.29;100720.09;1759821;81;21151;-74
2021/03/06 11:22:43;;;;;;;;;;;;;;;7.28;23.87;100716.75;1774983;79;21637;-77
2021/03/06 11:25:16;;;;;;;5.17;2.75;;;;;;;7.07;29.29;100723.60;1748304;81;20268;-77
2021/03/06 11:27:48;;;;;;;6.17;2.05;;;;;;;6.66;23.53;100719.73;1770891;80;21135;-76
2021/03/06 11:30:27;;;;;;;5.90;2.42;;;;;;;6.47;24.42;100719.94;1771966;80;21250;-76
2021/03/06 11:32:56;;;;;;;5.83;2.30;;;;;;;6.80;30.12;100717.81;1772157;79;21158;-77
2021/03/06 11:35:26;;;;;;;6.97;2.55;;;;;;;7.44;24.72;100702.13;1769736;79;21158;-73
2021/03/06 11:37:55;;;;;;;8.55;2.37;;;;;;;7.96;24.30;100707.85;1768932;79;21214;-76
2021/03/06 11:40:28;;;;;;;3.58;2.08;;;;;;;8.20;26.40;100694.28;1760808;80;21197;-77
2021/03/06 11:42:56;;;;;;;6.78;2.30;;;;;;;7.81;22.07;100702.41;1765845;80;21206;-77
2021/03/06 11:45:25;;;;;;;8.03;2.00;;;;;;;7.49;30.06;100698.98;1773037;80;21147;-76
2021/03/06 11:47:56;;;;;;;8.35;3.08;;;;;;;7.21;24.93;100700.70;1771705;80;21148;-76
2021/03/06 11:50:30;;;;;;;5.25;2.20;;;;;;;6.98;24.42;100696.22;1779685;79;21254;-76
2021/03/06 11:52:59;;;;;;;13.68;2.27;;;;;;;6.74;27.28;100703.51;1773478;80;21781;-75
2021/03/06 11:55:31;;;;;;;4.42;1.72;;;;;;;6.48;25.11;100703.79;1768442;80;21183;-76